Ellenburg Center, NY (12934)

11:39 AM EST on February 10, 2016 (GMT -0500)
Ellenburg Depot | | Change Station
CLOSE
Current Station
Personal Weather Station
Location: Ellenburg Depot, NY
Elevation: 1000 ft
Nearby Weather Stations

Elev 1000 ft 44.91 °N, 73.82 °W | Updated 4 seconds ago

Snow
Snow
20.7 °F
Feels Like 21 °F
N
2.0
Wind Variable Wind from NE
Gusts 3.0 mph

Today
High -- | Low -- °F
--% Chance of Precip.
Yesterday
High -- | Low -- °F
Precip. -- in
Pressure 29.54 in
Visibility 4.0 miles
Clouds Overcast 1200 ft
Windchill 21 °F
Dew Point 18 °F
Humidity 87%
Rainfall 0.00 in
Snow Depth Not available.
7:03 AM 5:15 PM
Waxing Crescent, 6% visible
METAR KPBG 101553Z AUTO 36004KT 4SM -SN BR OVC012 M04/M07 A2953 RMK AO2 SLP002 P0000 T10441067
Pressure 29.54 in
Visibility 4.0 miles
Clouds Overcast 1200 ft
Windchill 21 °F
Dew Point 18 °F
Humidity 87%
Rainfall 0.00 in
Snow Depth Not available.
7:03 AM 5:15 PM
Waxing Crescent, 6% visible
METAR KPBG 101553Z AUTO 36004KT 4SM -SN BR OVC012 M04/M07 A2953 RMK AO2 SLP002 P0000 T10441067

10-Day Weather Forecast

Almanac

Astronomy

Feb. 10, 2016 Rise Set
Actual Time
Civil Twilight
Nautical Twilight
Astronomical Twilight
Moon
Length of Visible Light
Length of Day
Tomorrow will be .
, % of the Moon is Illuminated

Today's Extremes

State Highs State Lows

Community

WunderPhotos

Upload Photos

1,891,881 photos uploaded!

WunderBlog® & News

Nearby

Air Quality

  Air Quality AQ Index Pollutant
Not available.

Snow Depth

Station Depth Elevation

Earthquake Activity

City Distance Mag. Time & Date
Minimum magnitude displayed is 2.5.

Coastal Water Temperatures

Place Temperature

Stations

Nearby Weather Stations

Station Location Temp. Windchill Dew Point Humidity Wind Precip. Elev Updated Type
                   

Watches & Warnings

There are currently no watches in effect.